Time;durP1;ratioP1;P1;durP2;ratioP2;P2;SDS_P1;SDS_P2;PMS_P1;PMS_P2;Temp;Humidity;BMP_temperature;BMP_pressure;BME280_temperature;BME280_humidity;BME280_pressure;Samples;Min_cycle;Max_cycle;Signal;HPM_P1;HPM_P2
2021/05/10 00:02:18;;;;;;;5.80;1.63;;;;;;;17.40;52.27;99946.31;5028496;28;20566;-74
2021/05/10 00:04:45;;;;;;;3.20;1.92;;;;;;;17.27;52.38;99943.16;5013780;28;20046;-74
2021/05/10 00:07:12;;;;;;;4.00;1.73;;;;;;;17.18;52.90;99939.59;5037354;28;20045;-74
2021/05/10 00:09:38;;;;;;;4.22;1.65;;;;;;;17.20;52.63;99943.78;5033856;28;20049;-74
2021/05/10 00:12:05;;;;;;;7.50;1.85;;;;;;;17.10;53.03;99937.66;5034885;28;20053;-73
2021/05/10 00:14:41;;;;;;;3.50;1.52;;;;;;;17.18;53.13;99945.72;5033271;28;20459;-73
2021/05/10 00:17:08;;;;;;;7.38;1.80;;;;;;;17.18;53.23;99934.25;5055814;28;20056;-74
2021/05/10 00:19:35;;;;;;;2.55;1.60;;;;;;;17.11;53.45;99928.72;5015023;28;20495;-73
2021/05/10 00:22:01;;;;;;;6.40;2.08;;;;;;;17.07;53.59;99923.84;5034406;28;20110;-74
2021/05/10 00:24:28;;;;;;;6.05;2.08;;;;;;;16.95;54.08;99925.88;5026970;28;20137;-74
2021/05/10 00:26:55;;;;;;;2.85;1.67;;;;;;;16.91;54.00;99933.28;5027836;28;20128;-74
2021/05/10 00:29:21;;;;;;;2.72;1.67;;;;;;;16.92;54.15;99928.81;5031793;28;20060;-73
2021/05/10 00:31:48;;;;;;;4.10;2.38;;;;;;;16.84;54.29;99931.38;5035695;28;20077;-73
2021/05/10 00:34:15;;;;;;;8.95;2.30;;;;;;;16.84;54.21;99934.88;5034102;28;20049;-74
2021/05/10 00:36:42;;;;;;;3.20;1.73;;;;;;;16.82;54.44;99936.84;5050648;28;20697;-74
2021/05/10 00:39:09;;;;;;;3.95;2.15;;;;;;;16.77;54.59;99932.94;5040248;28;20065;-73
2021/05/10 00:41:36;;;;;;;3.67;2.10;;;;;;;16.77;54.41;99940.94;5067641;28;20080;-72
2021/05/10 00:44:04;;;;;;;6.43;1.80;;;;;;;16.69;54.69;99947.75;5056224;28;20037;-73
2021/05/10 00:46:31;;;;;;;5.57;1.70;;;;;;;16.66;54.84;99941.91;5054299;28;20547;-73
2021/05/10 00:48:57;;;;;;;5.30;2.08;;;;;;;16.59;55.08;99949.63;5016017;28;20461;-73
2021/05/10 00:51:24;;;;;;;2.28;1.75;;;;;;;16.50;54.97;99942.53;5031363;28;20049;-74
2021/05/10 00:53:51;;;;;;;2.72;1.90;;;;;;;16.53;55.17;99944.06;5031119;28;20084;-73
2021/05/10 00:56:17;;;;;;;5.03;2.13;;;;;;;16.49;55.04;99937.38;5020473;28;20159;-72
2021/05/10 00:58:46;;;;;;;2.70;1.67;;;;;;;16.49;55.07;99934.72;5049032;28;20061;-73
2021/05/10 01:01:13;;;;;;;7.93;1.70;;;;;;;16.44;55.29;99937.81;5030869;28;20168;-74
2021/05/10 01:03:40;;;;;;;2.90;1.70;;;;;;;16.43;55.19;99938.78;5036874;28;20044;-72
2021/05/10 01:06:07;;;;;;;2.75;1.67;;;;;;;16.39;55.36;99942.69;5012002;28;20052;-74
2021/05/10 01:08:34;;;;;;;2.55;1.90;;;;;;;16.40;55.26;99934.59;5033809;28;20041;-73
2021/05/10 01:11:01;;;;;;;3.00;1.67;;;;;;;16.27;55.58;99935.91;5028248;28;20388;-73
2021/05/10 01:13:27;;;;;;;7.47;2.35;;;;;;;16.18;55.73;99937.59;5052718;28;20589;-72
2021/05/10 01:15:54;;;;;;;3.38;1.88;;;;;;;16.28;55.52;99937.56;5022503;28;20055;-72
2021/05/10 01:18:21;;;;;;;3.80;2.17;;;;;;;16.24;55.46;99936.19;5031777;28;20136;-73
2021/05/10 01:20:49;;;;;;;4.30;1.98;;;;;;;16.18;55.45;99935.78;5009837;28;20388;-74
2021/05/10 01:23:17;;;;;;;8.43;2.40;;;;;;;16.24;55.38;99930.88;5033074;28;20052;-73
2021/05/10 01:25:44;;;;;;;3.85;2.20;;;;;;;16.19;55.26;99931.28;5015197;28;20049;-74
2021/05/10 01:28:11;;;;;;;4.55;1.85;;;;;;;16.08;55.55;99927.00;5031630;28;20049;-73
2021/05/10 01:30:40;;;;;;;6.88;2.28;;;;;;;16.16;55.08;99927.09;5035141;28;20049;-73
2021/05/10 01:33:08;;;;;;;7.20;2.60;;;;;;;16.17;55.20;99923.47;5028159;28;20059;-73
2021/05/10 01:35:38;;;;;;;4.07;2.00;;;;;;;16.15;54.87;99922.78;5031820;28;20136;-72
2021/05/10 01:38:05;;;;;;;4.22;1.73;;;;;;;16.09;55.12;99926.00;5025462;28;20088;-73
2021/05/10 01:40:32;;;;;;;6.90;1.92;;;;;;;16.07;54.95;99925.28;5015258;28;20431;-73
2021/05/10 01:42:59;;;;;;;5.57;1.67;;;;;;;16.08;54.97;99921.69;5046514;28;20140;-74
2021/05/10 01:45:26;;;;;;;6.05;1.98;;;;;;;16.07;54.96;99919.16;5052290;28;20055;-73
2021/05/10 01:48:01;;;;;;;4.97;2.00;;;;;;;16.03;54.98;99923.94;5021151;28;20050;-74
2021/05/10 01:50:28;;;;;;;3.73;1.67;;;;;;;15.97;55.17;99923.66;5032074;28;20560;-72
2021/05/10 01:52:54;;;;;;;3.13;1.90;;;;;;;15.93;55.11;99929.22;5032678;28;20953;-72
2021/05/10 01:55:23;;;;;;;3.30;2.03;;;;;;;15.88;55.68;99920.84;5042730;28;20621;-72
2021/05/10 01:57:51;;;;;;;3.63;1.73;;;;;;;15.84;55.61;99929.25;5051494;28;20145;-72
2021/05/10 02:00:23;;;;;;;2.83;1.80;;;;;;;15.75;55.81;99924.78;5031920;28;20776;-73
2021/05/10 02:02:50;;;;;;;7.20;2.05;;;;;;;15.63;55.94;99916.94;5034761;28;20095;-72
2021/05/10 02:05:21;;;;;;;7.65;2.10;;;;;;;15.69;56.09;99921.72;5026485;28;20420;-74
2021/05/10 02:07:49;;;;;;;4.50;1.90;;;;;;;15.64;56.13;99913.34;5025006;28;20052;-73
2021/05/10 02:10:18;;;;;;;10.02;1.92;;;;;;;15.53;56.25;99915.25;5046021;28;20045;-74
2021/05/10 02:13:02;;;;;;;5.35;1.98;;;;;;;15.58;56.16;99919.19;5045079;28;20049;-74
2021/05/10 02:15:36;;;;;;;7.13;1.92;;;;;;;15.59;55.96;99925.34;5028106;28;20156;-73
2021/05/10 02:18:04;;;;;;;7.00;2.22;;;;;;;15.48;56.49;99922.81;5007240;28;20045;-72
2021/05/10 02:20:31;;;;;;;3.42;1.92;;;;;;;15.41;56.58;99918.06;5026337;28;20049;-74
2021/05/10 02:23:06;;;;;;;10.52;2.10;;;;;;;15.34;56.77;99916.94;5029029;28;20048;-73
2021/05/10 02:25:35;;;;;;;2.33;1.60;;;;;;;15.34;56.70;99913.44;5027107;28;20091;-72
2021/05/10 02:28:04;;;;;;;4.68;1.83;;;;;;;15.33;56.70;99906.47;5010012;28;20416;-73
2021/05/10 02:30:31;;;;;;;6.03;1.85;;;;;;;15.34;56.54;99908.13;5024823;28;20045;-72
2021/05/10 02:33:00;;;;;;;2.75;1.70;;;;;;;15.27;56.43;99910.50;5042140;28;20058;-72
2021/05/10 02:35:27;;;;;;;6.32;2.13;;;;;;;15.15;57.02;99908.94;5034393;28;20034;-73
2021/05/10 02:37:54;;;;;;;5.35;1.92;;;;;;;15.20;56.99;99912.88;5022982;28;20064;-73
2021/05/10 02:40:22;;;;;;;7.75;2.08;;;;;;;15.14;57.04;99915.25;5011016;28;20125;-73
2021/05/10 02:42:49;;;;;;;7.35;2.13;;;;;;;15.04;57.21;99923.19;5021195;28;20099;-74
2021/05/10 02:45:16;;;;;;;5.95;1.63;;;;;;;14.98;57.26;99921.06;5030528;28;20503;-73
2021/05/10 02:47:43;;;;;;;2.97;1.60;;;;;;;15.03;57.47;99918.81;5023714;28;20084;-73
2021/05/10 02:50:18;;;;;;;3.70;1.65;;;;;;;15.05;57.14;99911.59;5033911;28;20054;-73
2021/05/10 02:52:48;;;;;;;5.03;1.83;;;;;;;15.06;56.87;99918.56;5030406;28;20547;-74
2021/05/10 02:55:16;;;;;;;7.00;1.50;;;;;;;15.07;56.80;99916.75;5016124;28;20053;-74
2021/05/10 02:57:43;;;;;;;5.13;1.98;;;;;;;15.06;56.77;99926.50;5037691;28;20076;-73
2021/05/10 03:00:12;;;;;;;7.57;2.33;;;;;;;15.03;56.77;99924.13;5041236;28;20117;-73
2021/05/10 03:02:39;;;;;;;6.38;1.70;;;;;;;15.01;56.86;99926.09;5051272;28;20144;-73
2021/05/10 03:05:08;;;;;;;4.63;2.08;;;;;;;15.01;56.66;99920.78;5051198;28;20096;-74
2021/05/10 03:07:35;;;;;;;2.53;1.60;;;;;;;15.04;56.48;99924.97;5032365;28;20119;-73
2021/05/10 03:10:08;;;;;;;6.80;1.92;;;;;;;15.06;56.17;99923.03;5029496;28;20061;-75
2021/05/10 03:12:37;;;;;;;7.00;1.70;;;;;;;15.03;55.99;99912.69;5051004;28;20057;-74
2021/05/10 03:15:08;;;;;;;4.85;1.75;;;;;;;14.97;56.07;99919.38;5030316;28;20056;-75
2021/05/10 03:17:35;;;;;;;5.63;1.50;;;;;;;15.01;55.81;99919.94;5031008;28;20049;-73
2021/05/10 03:20:04;;;;;;;3.42;1.75;;;;;;;15.01;55.66;99914.66;5035186;28;20062;-73
2021/05/10 03:22:31;;;;;;;3.00;1.50;;;;;;;14.97;55.91;99914.06;5034142;28;20271;-76
2021/05/10 03:24:59;;;;;;;8.38;1.55;;;;;;;15.01;55.47;99919.94;5031615;28;20058;-73
2021/05/10 03:27:26;;;;;;;3.60;1.60;;;;;;;14.94;55.82;99922.28;5049502;28;20071;-73
2021/05/10 03:29:52;;;;;;;5.88;1.60;;;;;;;14.94;55.64;99917.81;5026104;28;20053;-75
2021/05/10 03:32:19;;;;;;;3.72;1.83;;;;;;;14.94;55.58;99924.94;5035522;28;20044;-74
2021/05/10 03:34:46;;;;;;;5.82;1.75;;;;;;;14.92;55.70;99934.84;5037878;28;20554;-75
2021/05/10 03:37:12;;;;;;;5.15;2.35;;;;;;;14.92;55.74;99929.56;5029331;28;20136;-75
2021/05/10 03:39:39;;;;;;;5.32;2.15;;;;;;;14.88;55.96;99936.94;5032073;28;20108;-75
2021/05/10 03:42:06;;;;;;;2.90;1.60;;;;;;;14.80;56.15;99928.81;5024621;28;20140;-74
2021/05/10 03:44:32;;;;;;;6.63;1.83;;;;;;;14.82;56.18;99934.00;5050586;28;20048;-74
2021/05/10 03:46:59;;;;;;;6.85;1.83;;;;;;;14.85;55.84;99937.19;5025389;28;20042;-74
2021/05/10 03:49:26;;;;;;;4.93;1.88;;;;;;;14.83;56.01;99943.59;5053591;28;20055;-74
2021/05/10 03:51:53;;;;;;;7.93;1.80;;;;;;;14.84;55.90;99939.97;5051706;28;20483;-74
2021/05/10 03:54:19;;;;;;;2.90;1.40;;;;;;;14.88;55.65;99942.22;5022219;28;20522;-75
2021/05/10 03:56:46;;;;;;;8.35;1.80;;;;;;;14.85;55.82;99937.19;5030718;28;20101;-76
2021/05/10 03:59:13;;;;;;;3.45;1.70;;;;;;;14.88;55.45;99931.63;5048544;28;20082;-74
2021/05/10 04:01:39;;;;;;;3.47;1.73;;;;;;;14.81;55.78;99934.94;5031214;28;20045;-74
2021/05/10 04:04:16;;;;;;;6.47;1.63;;;;;;;14.95;55.18;99931.94;5042829;28;20065;-74
2021/05/10 04:09:30;;;;;;;8.63;2.05;;;;;;;15.12;54.64;99930.44;5032055;28;20057;-74
2021/05/10 04:14:41;;;;;;;6.18;1.95;;;;;;;15.47;53.12;99948.50;5039624;28;20073;-72
2021/05/10 04:17:08;;;;;;;8.57;2.60;;;;;;;15.63;53.11;99943.47;5026942;28;20550;-74
2021/05/10 04:19:35;;;;;;;9.13;1.67;;;;;;;15.90;52.02;99947.28;5046305;28;20688;-74
2021/05/10 04:22:02;;;;;;;3.95;1.88;;;;;;;16.39;50.86;99938.25;5028765;28;20438;-73
2021/05/10 04:24:28;;;;;;;3.58;1.98;;;;;;;17.56;48.50;99949.13;5028301;28;20124;-73
2021/05/10 04:26:55;;;;;;;4.35;1.92;;;;;;;19.05;44.22;99949.97;5029966;28;20056;-75
2021/05/10 04:29:22;;;;;;;3.03;1.55;;;;;;;20.20;41.61;99949.97;5032940;28;20411;-75
2021/05/10 04:31:48;;;;;;;9.52;2.28;;;;;;;21.31;39.01;99934.94;5019540;28;20526;-75
2021/05/10 04:34:15;;;;;;;5.05;2.13;;;;;;;22.16;36.74;99942.88;5032714;28;20136;-75
2021/05/10 04:36:42;;;;;;;4.43;1.70;;;;;;;22.52;35.91;99940.31;5033435;28;20077;-73
2021/05/10 04:39:09;;;;;;;6.10;2.08;;;;;;;22.87;35.41;99935.19;5033326;28;20500;-73
2021/05/10 04:41:35;;;;;;;4.03;2.03;;;;;;;23.09;34.85;99942.34;5017835;28;20050;-74
2021/05/10 04:44:02;;;;;;;5.40;2.15;;;;;;;23.09;34.05;99928.91;5030668;28;20053;-74
2021/05/10 04:46:29;;;;;;;4.57;1.63;;;;;;;23.47;33.34;99931.41;5023084;28;21020;-75
2021/05/10 04:48:56;;;;;;;3.58;1.60;;;;;;;24.19;32.53;99928.56;5027118;28;20053;-74
2021/05/10 04:51:22;;;;;;;4.07;2.15;;;;;;;24.43;31.83;99918.41;5025994;28;20491;-73
2021/05/10 04:53:49;;;;;;;8.18;2.72;;;;;;;25.00;31.02;99915.38;5030427;28;20091;-73
2021/05/10 04:56:16;;;;;;;6.18;1.60;;;;;;;24.97;30.56;99913.06;5030690;28;20438;-73
2021/05/10 04:58:43;;;;;;;3.60;1.38;;;;;;;24.94;30.47;99909.94;5031883;28;20045;-74
2021/05/10 05:01:09;;;;;;;6.28;1.90;;;;;;;25.38;30.09;99906.81;5028954;28;20084;-72
2021/05/10 05:03:37;;;;;;;10.07;1.58;;;;;;;25.37;29.80;99910.53;5049068;28;20049;-73
2021/05/10 05:06:04;;;;;;;6.30;1.63;;;;;;;25.55;29.35;99907.25;5033257;28;20146;-73
2021/05/10 05:08:30;;;;;;;7.93;2.13;;;;;;;26.23;28.40;99909.78;5032066;28;20447;-73
2021/05/10 05:10:57;;;;;;;6.18;1.92;;;;;;;26.69;27.91;99912.38;5008163;28;20071;-72
2021/05/10 05:13:25;;;;;;;5.15;1.75;;;;;;;27.11;27.14;99912.88;5025070;28;20113;-73
2021/05/10 05:15:52;;;;;;;6.32;1.80;;;;;;;27.41;26.55;99910.41;5046638;28;20128;-72
2021/05/10 05:18:19;;;;;;;7.10;1.70;;;;;;;27.45;26.38;99908.94;5023464;28;20052;-73
2021/05/10 05:20:46;;;;;;;5.13;1.50;;;;;;;27.56;26.13;99920.94;5028857;28;20152;-72
2021/05/10 05:23:30;;;;;;;5.28;1.63;;;;;;;27.56;26.30;99914.69;5046868;28;20073;-74
2021/05/10 05:26:02;;;;;;;5.72;1.65;;;;;;;28.46;24.87;99905.22;5042244;28;20056;-76
2021/05/10 05:28:30;;;;;;;5.03;1.67;;;;;;;27.73;25.67;99897.72;5013050;28;20048;-74
2021/05/10 05:30:58;;;;;;;4.22;1.67;;;;;;;27.26;26.21;99893.69;5010519;28;20524;-76
2021/05/10 05:33:25;;;;;;;4.07;1.40;;;;;;;28.10;25.25;99897.00;5044573;28;20044;-77
2021/05/10 05:35:52;;;;;;;6.20;2.53;;;;;;;28.11;25.42;99901.38;5027448;28;20041;-76
2021/05/10 05:38:19;;;;;;;3.35;1.77;;;;;;;27.65;25.38;99898.00;5026723;28;20527;-75
2021/05/10 05:40:46;;;;;;;2.70;1.70;;;;;;;28.26;24.75;99902.69;5045551;28;20124;-76
2021/05/10 05:43:13;;;;;;;4.72;1.52;;;;;;;28.66;24.13;99896.03;5003143;28;20515;-75
2021/05/10 05:45:41;;;;;;;6.60;1.48;;;;;;;27.88;25.05;99902.00;5031404;28;20735;-76
2021/05/10 05:48:10;;;;;;;6.72;1.50;;;;;;;28.49;24.49;99899.34;5043309;28;20072;-75
2021/05/10 05:50:38;;;;;;;7.28;2.00;;;;;;;29.05;24.16;99896.63;5030752;28;20053;-77
2021/05/10 05:53:05;;;;;;;4.55;1.48;;;;;;;29.47;23.31;99894.78;5019054;28;20049;-74
2021/05/10 05:55:32;;;;;;;9.23;1.80;;;;;;;28.33;24.65;99905.34;5025509;28;20077;-75
2021/05/10 05:58:00;;;;;;;5.43;1.70;;;;;;;29.32;23.66;99913.38;5014680;28;20045;-75
2021/05/10 06:00:27;;;;;;;3.30;1.50;;;;;;;29.66;22.78;99899.09;5025767;28;20519;-74
2021/05/10 06:02:53;;;;;;;2.80;1.70;;;;;;;30.60;22.03;99901.84;5022120;28;20132;-74
2021/05/10 06:05:20;;;;;;;6.28;1.65;;;;;;;30.72;21.51;99910.00;5029732;28;20124;-76
2021/05/10 06:07:50;;;;;;;6.57;1.60;;;;;;;30.18;22.15;99912.88;5031690;28;20183;-73
2021/05/10 06:10:21;;;;;;;4.68;2.05;;;;;;;29.59;22.72;99905.69;5034049;28;20119;-75
2021/05/10 06:12:50;;;;;;;2.10;1.67;;;;;;;30.43;22.20;99911.78;5031976;28;20042;-76
2021/05/10 06:15:18;;;;;;;4.20;1.65;;;;;;;31.13;20.72;99911.63;5030540;28;20194;-71
2021/05/10 06:17:46;;;;;;;6.45;2.33;;;;;;;32.04;20.21;99919.78;5045518;28;20132;-77
2021/05/10 06:20:14;;;;;;;5.30;2.20;;;;;;;32.57;19.84;99923.06;5033305;28;20053;-74
2021/05/10 06:22:41;;;;;;;7.32;1.90;;;;;;;32.34;19.84;99924.06;5043793;28;20085;-71
2021/05/10 06:25:10;;;;;;;3.22;1.80;;;;;;;32.17;19.84;99919.47;5036528;28;20077;-78
2021/05/10 06:27:37;;;;;;;2.78;1.60;;;;;;;32.47;19.86;99915.56;5008771;28;20096;-75
2021/05/10 06:30:05;;;;;;;5.97;1.50;;;;;;;32.08;20.41;99915.50;5038291;28;20073;-75
2021/05/10 06:32:32;;;;;;;11.50;2.53;;;;;;;32.77;19.69;99920.56;5031538;28;20052;-81
2021/05/10 06:35:00;;;;;;;8.82;2.63;;;;;;;32.69;19.76;99930.03;5031563;28;20140;-75
2021/05/10 06:37:29;;;;;;;3.53;1.80;;;;;;;32.50;19.77;99925.94;5029106;28;20122;-76
2021/05/10 06:39:57;;;;;;;3.45;1.70;;;;;;;32.00;19.83;99929.53;5037494;28;20153;-74
2021/05/10 06:42:24;;;;;;;3.38;1.67;;;;;;;32.38;19.82;99925.22;5015060;28;20053;-72
2021/05/10 06:44:51;;;;;;;3.75;2.05;;;;;;;32.86;19.63;99923.69;5032111;28;20136;-75
2021/05/10 06:47:18;;;;;;;6.75;1.95;;;;;;;33.53;18.37;99926.09;5041610;28;20045;-73
2021/05/10 06:49:45;;;;;;;5.18;1.90;;;;;;;34.00;18.25;99920.00;5032285;28;20073;-71
2021/05/10 06:52:12;;;;;;;3.47;1.83;;;;;;;33.16;18.77;99923.25;5026698;28;20415;-81
2021/05/10 06:54:39;;;;;;;7.32;2.25;;;;;;;32.44;19.40;99914.16;5027623;28;20046;-77
2021/05/10 06:57:06;;;;;;;5.25;1.92;;;;;;;31.48;20.80;99921.56;5012835;28;20061;-77
2021/05/10 06:59:33;;;;;;;4.68;2.08;;;;;;;32.19;20.10;99911.84;5036858;28;20077;-70
2021/05/10 07:01:59;;;;;;;4.45;2.10;;;;;;;33.40;18.71;99905.47;5026529;28;20080;-69
2021/05/10 07:04:26;;;;;;;8.20;2.25;;;;;;;34.06;18.26;99902.53;5031105;28;20132;-68
2021/05/10 07:06:53;;;;;;;5.57;1.95;;;;;;;34.66;17.91;99908.63;5051248;28;20073;-71
2021/05/10 07:09:19;;;;;;;6.22;1.98;;;;;;;35.10;17.47;99906.38;5022915;28;20455;-76
2021/05/10 07:11:46;;;;;;;6.82;1.85;;;;;;;34.57;17.59;99896.56;5037919;28;20045;-78
2021/05/10 07:14:13;;;;;;;4.55;2.45;;;;;;;34.63;17.19;99896.34;5027774;28;21186;-78
2021/05/10 07:16:40;;;;;;;10.57;2.13;;;;;;;33.71;18.36;99895.69;5033022;28;20145;-80
2021/05/10 07:19:07;;;;;;;6.97;1.98;;;;;;;34.03;18.12;99904.97;5055531;28;20132;-77
2021/05/10 07:21:33;;;;;;;6.38;1.85;;;;;;;33.76;18.24;99906.66;5031230;28;20071;-75
2021/05/10 07:24:00;;;;;;;4.70;2.20;;;;;;;34.56;18.15;99917.63;5026537;28;20045;-74
2021/05/10 07:26:27;;;;;;;5.43;1.95;;;;;;;35.31;17.38;99911.91;5033104;28;20538;-74
2021/05/10 07:28:54;;;;;;;3.55;1.80;;;;;;;34.15;18.53;99909.16;5032911;28;20523;-73
2021/05/10 07:31:20;;;;;;;5.45;1.55;;;;;;;34.40;18.30;99904.91;5034020;28;20049;-79
2021/05/10 07:33:48;;;;;;;8.30;2.00;;;;;;;33.38;18.88;99901.38;5039389;28;20751;-77
2021/05/10 07:36:15;;;;;;;6.05;1.70;;;;;;;34.24;18.55;99907.56;5040091;28;20046;-71
2021/05/10 07:38:42;;;;;;;5.50;1.70;;;;;;;33.42;18.62;99907.97;5029204;28;506243;-74
2021/05/10 07:41:08;;;;;;;3.20;1.90;;;;;;;33.06;19.63;99915.78;5031091;28;20062;-76
2021/05/10 07:43:35;;;;;;;5.18;1.77;;;;;;;32.65;20.05;99923.44;5027622;28;20053;-75
2021/05/10 07:46:02;;;;;;;5.32;1.90;;;;;;;33.15;19.55;99918.88;5041352;28;20132;-75
2021/05/10 07:48:30;;;;;;;5.90;2.22;;;;;;;33.29;19.63;99928.31;5032970;28;20075;-77
2021/05/10 07:50:56;;;;;;;3.25;1.70;;;;;;;33.25;19.92;99933.44;5023154;28;20129;-79
2021/05/10 07:53:23;;;;;;;5.18;1.80;;;;;;;33.35;19.62;99935.44;5020057;28;20095;-79
2021/05/10 07:55:50;;;;;;;4.82;2.22;;;;;;;33.63;19.37;99947.19;5034055;28;20132;-76
2021/05/10 07:58:21;;;;;;;4.93;2.00;;;;;;;34.82;18.19;99953.28;5041106;28;20570;-78
2021/05/10 08:00:51;;;;;;;3.78;1.90;;;;;;;34.45;18.30;99955.00;5026579;28;20068;-73
2021/05/10 08:03:19;;;;;;;8.15;1.80;;;;;;;34.11;18.61;99931.81;5029636;28;20045;-75
2021/05/10 08:05:46;;;;;;;8.90;2.35;;;;;;;34.37;18.81;99935.53;5043801;28;20076;-74
2021/05/10 08:08:16;;;;;;;8.60;2.15;;;;;;;34.92;18.43;99935.00;5025127;28;20623;-78
2021/05/10 08:10:45;;;;;;;7.55;2.50;;;;;;;35.38;17.79;99924.19;5032672;28;20049;-79
2021/05/10 08:13:12;;;;;;;3.58;2.00;;;;;;;36.39;16.71;99930.81;5045201;28;20530;-75
2021/05/10 08:15:38;;;;;;;6.75;2.42;;;;;;;34.79;17.92;99924.56;5025485;28;20729;-74
2021/05/10 08:18:06;;;;;;;4.38;1.90;;;;;;;35.24;17.81;99926.63;5029441;28;20053;-77
2021/05/10 08:20:43;;;;;;;5.07;2.20;;;;;;;34.71;18.29;99919.59;5032310;28;20135;-77
2021/05/10 08:23:11;;;;;;;4.57;2.28;;;;;;;35.38;18.08;99901.50;5023941;28;20504;-76
2021/05/10 08:25:39;;;;;;;5.47;1.73;;;;;;;36.61;16.76;99897.59;5043641;28;20125;-75
2021/05/10 08:28:06;;;;;;;5.57;2.30;;;;;;;35.69;17.44;99894.97;5027963;28;20132;-75
2021/05/10 08:30:33;;;;;;;5.32;1.90;;;;;;;33.58;19.16;99906.22;5034412;28;20147;-78
2021/05/10 08:33:01;;;;;;;6.15;1.90;;;;;;;30.80;22.08;99917.75;5033461;28;20532;-74
2021/05/10 08:35:28;;;;;;;7.20;2.03;;;;;;;29.59;24.05;99916.53;5027265;28;20083;-74
2021/05/10 08:38:02;;;;;;;6.55;1.75;;;;;;;28.21;25.61;99920.63;5030224;28;20046;-75
2021/05/10 08:40:29;;;;;;;5.53;2.03;;;;;;;27.76;26.82;99927.06;5033671;28;20124;-76
2021/05/10 08:42:58;;;;;;;10.18;1.95;;;;;;;27.35;27.89;99921.28;5038575;28;20128;-75
2021/05/10 08:45:25;;;;;;;6.18;1.90;;;;;;;26.80;28.78;99923.59;5026400;28;20052;-77
2021/05/10 08:47:52;;;;;;;8.73;1.83;;;;;;;26.67;28.60;99919.88;5037154;28;20046;-76
2021/05/10 08:50:19;;;;;;;3.28;1.77;;;;;;;26.70;28.62;99916.78;5034173;28;20053;-78
2021/05/10 08:52:46;;;;;;;6.32;1.33;;;;;;;26.15;29.42;99918.91;5028090;28;20075;-77
2021/05/10 08:55:16;;;;;;;4.53;1.83;;;;;;;25.81;30.63;99916.44;5018561;28;20486;-75
2021/05/10 08:57:43;;;;;;;7.13;1.67;;;;;;;25.02;31.65;99917.84;5027372;28;20104;-78
2021/05/10 09:00:14;;;;;;;4.80;2.00;;;;;;;25.11;31.87;99905.09;5037905;28;20415;-77
2021/05/10 09:02:41;;;;;;;3.33;1.55;;;;;;;25.25;32.14;99906.78;5045660;28;20381;-77
2021/05/10 09:05:12;;;;;;;4.85;2.00;;;;;;;25.00;32.00;99895.69;5046131;28;20049;-77
2021/05/10 09:07:40;;;;;;;7.18;1.52;;;;;;;25.20;31.29;99901.16;5031076;28;20037;-77
2021/05/10 09:10:09;;;;;;;10.93;1.88;;;;;;;25.20;31.64;99899.31;5031765;28;20140;-78
2021/05/10 09:12:41;;;;;;;4.07;1.95;;;;;;;25.11;31.59;99897.81;5031026;28;20388;-78
2021/05/10 09:15:17;;;;;;;9.20;1.80;;;;;;;25.20;32.06;99899.31;5035278;28;20057;-77
2021/05/10 09:17:46;;;;;;;3.58;1.95;;;;;;;25.55;32.38;99899.16;5029336;28;20080;-78
2021/05/10 09:20:17;;;;;;;7.07;1.83;;;;;;;25.77;30.69;99904.41;5051405;28;20057;-78
2021/05/10 09:22:49;;;;;;;7.05;2.33;;;;;;;25.36;31.23;99897.28;5047287;28;20121;-76
2021/05/10 09:25:16;;;;;;;3.33;1.73;;;;;;;25.56;31.15;99900.00;5030210;28;20140;-77
2021/05/10 09:27:45;;;;;;;6.50;1.70;;;;;;;25.50;31.30;99891.69;5025349;28;20357;-77
2021/05/10 09:30:12;;;;;;;3.88;1.73;;;;;;;25.48;32.21;99896.44;5034266;28;20140;-78
2021/05/10 09:32:39;;;;;;;4.07;1.90;;;;;;;25.69;31.93;99908.94;5031887;28;20105;-78
2021/05/10 09:35:26;;;;;;;4.28;2.15;;;;;;;25.96;31.41;99899.00;5031515;28;20555;-77
2021/05/10 09:38:03;;;;;;;7.30;1.90;;;;;;;25.80;30.55;99899.41;5036645;28;20046;-78
2021/05/10 09:40:51;;;;;;;3.92;1.70;;;;;;;25.79;31.01;99900.47;5005717;28;20098;-79
2021/05/10 09:43:20;;;;;;;6.78;2.13;;;;;;;25.68;31.28;99890.28;5033076;28;20060;-78
2021/05/10 09:45:51;;;;;;;3.95;2.17;;;;;;;25.75;31.41;99893.78;5047000;28;20686;-78
2021/05/10 09:48:19;;;;;;;2.58;1.50;;;;;;;25.76;31.32;99898.19;5009358;28;20049;-77
2021/05/10 09:50:49;;;;;;;2.90;1.77;;;;;;;25.90;31.60;99893.63;5030012;28;20054;-78
2021/05/10 09:53:29;;;;;;;5.15;1.77;;;;;;;26.06;31.17;99903.16;5044879;28;20053;-78
2021/05/10 09:55:57;;;;;;;3.78;1.60;;;;;;;26.14;30.43;99898.38;5043027;28;20068;-77
2021/05/10 09:58:25;;;;;;;4.63;1.45;;;;;;;26.01;31.07;99910.00;5048712;28;20049;-77
2021/05/10 10:00:57;;;;;;;6.18;2.50;;;;;;;25.80;31.13;99903.97;5030300;28;20187;-77
2021/05/10 10:03:35;;;;;;;4.57;1.67;;;;;;;25.76;31.98;99898.19;5031042;28;20095;-77
2021/05/10 10:06:08;;;;;;;4.07;1.50;;;;;;;26.20;31.33;99900.22;5033195;28;20057;-77
2021/05/10 10:08:36;;;;;;;8.85;1.95;;;;;;;26.15;30.86;99900.03;5047420;28;20058;-79
2021/05/10 10:11:05;;;;;;;5.45;1.30;;;;;;;26.16;31.13;99893.59;5037398;28;20076;-78
2021/05/10 10:13:31;;;;;;;3.63;1.73;;;;;;;26.20;31.08;99885.91;5016077;28;20124;-79
2021/05/10 10:15:59;;;;;;;5.88;2.00;;;;;;;26.13;30.67;99877.00;5033337;28;20137;-78
2021/05/10 10:18:26;;;;;;;5.90;2.15;;;;;;;26.46;30.17;99882.34;5031932;28;20050;-79
2021/05/10 10:20:56;;;;;;;7.55;1.60;;;;;;;26.84;29.87;99882.44;5040666;28;20075;-79
2021/05/10 10:23:24;;;;;;;2.75;1.90;;;;;;;27.25;29.48;99887.44;5043815;28;20487;-77
2021/05/10 10:25:51;;;;;;;7.53;2.03;;;;;;;27.15;29.87;99887.06;5018628;28;20054;-78
2021/05/10 10:28:20;;;;;;;6.18;1.80;;;;;;;27.07;28.99;99879.22;5032074;28;20107;-77
2021/05/10 10:30:53;;;;;;;7.25;1.92;;;;;;;27.01;29.78;99877.34;5050494;28;20120;-77
2021/05/10 10:33:27;;;;;;;7.35;1.80;;;;;;;26.85;30.03;99880.56;5034928;28;20060;-78
2021/05/10 10:35:54;;;;;;;6.83;2.13;;;;;;;26.65;30.04;99884.16;5007153;28;20045;-76
2021/05/10 10:38:30;;;;;;;4.40;1.77;;;;;;;26.23;30.49;99894.41;5011163;28;20079;-78
2021/05/10 10:41:20;;;;;;;3.78;1.85;;;;;;;26.08;31.34;99903.78;5027335;28;20053;-78
2021/05/10 10:43:47;;;;;;;4.07;2.05;;;;;;;26.30;31.36;99898.97;5024811;28;20132;-77
2021/05/10 10:46:30;;;;;;;4.45;1.75;;;;;;;26.40;30.70;99893.97;5033786;28;20060;-78
2021/05/10 10:49:25;;;;;;;3.90;1.50;;;;;;;26.40;30.36;99888.56;5026281;28;20053;-77
2021/05/10 10:51:52;;;;;;;7.55;2.72;;;;;;;26.53;30.65;99895.84;5037178;28;20123;-77
2021/05/10 10:54:21;;;;;;;4.65;1.80;;;;;;;26.64;31.38;99890.59;5026486;28;20045;-78
2021/05/10 10:56:54;;;;;;;8.25;1.80;;;;;;;26.82;31.19;99894.47;5032226;28;20515;-76
2021/05/10 10:59:26;;;;;;;5.85;1.90;;;;;;;26.85;31.05;99897.59;5031050;28;20053;-77
2021/05/10 11:01:53;;;;;;;6.75;2.47;;;;;;;27.06;31.41;99888.34;5028567;28;20048;-76
2021/05/10 11:04:28;;;;;;;4.55;1.70;;;;;;;27.06;30.15;99880.22;5029469;28;20774;-77
2021/05/10 11:06:55;;;;;;;6.22;1.80;;;;;;;26.93;30.32;99881.16;5023326;28;20272;-76
2021/05/10 11:09:48;;;;;;;4.30;1.95;;;;;;;26.98;30.42;99878.63;5032057;28;20454;-78
2021/05/10 11:12:45;;;;;;;2.33;1.50;;;;;;;26.90;30.51;99878.03;5047345;28;20038;-78
2021/05/10 11:15:13;;;;;;;2.40;1.55;;;;;;;27.04;29.77;99862.59;5032301;28;20057;-78
2021/05/10 11:17:52;;;;;;;8.95;2.25;;;;;;;27.09;30.24;99863.63;5047766;28;20052;-77
2021/05/10 11:20:39;;;;;;;6.57;2.17;;;;;;;27.03;30.04;99869.88;5028102;28;20135;-76
2021/05/10 11:23:24;;;;;;;3.33;1.45;;;;;;;26.90;30.30;99857.25;5031097;28;20041;-75
2021/05/10 11:25:52;;;;;;;5.07;1.73;;;;;;;26.76;29.98;99858.38;5036185;28;20119;-76
2021/05/10 11:28:39;;;;;;;7.78;1.80;;;;;;;26.57;30.11;99856.56;5037744;28;20050;-76
2021/05/10 11:31:11;;;;;;;3.88;1.40;;;;;;;26.51;30.34;99856.38;5044876;28;20072;-77
2021/05/10 11:33:53;;;;;;;3.05;1.45;;;;;;;26.61;29.81;99852.41;5041205;28;20045;-76
2021/05/10 11:36:26;;;;;;;3.05;1.60;;;;;;;26.74;29.34;99861.28;5031153;28;20096;-77
2021/05/10 11:38:53;;;;;;;5.82;1.70;;;;;;;26.93;29.36;99851.44;5031418;28;20085;-75
2021/05/10 11:41:31;;;;;;;5.32;1.52;;;;;;;26.85;29.26;99858.97;5035028;28;20089;-77
2021/05/10 11:44:05;;;;;;;3.50;1.60;;;;;;;27.02;29.28;99852.00;5044429;28;20057;-78
2021/05/10 11:46:42;;;;;;;5.17;1.63;;;;;;;27.27;28.80;99836.69;5037273;28;20069;-77
2021/05/10 11:49:13;;;;;;;2.92;1.60;;;;;;;27.42;28.60;99831.00;5030357;28;20440;-77